createdAt,value
2018-11-27T00:01:21.434Z,92.69
2018-11-27T00:03:56.166Z,92.68
2018-11-27T00:06:25.613Z,93.27
2018-11-27T00:08:55.103Z,93.15
2018-11-27T00:11:24.498Z,93.26
2018-11-27T00:13:54.003Z,93.30
2018-11-27T00:16:23.429Z,93.01
2018-11-27T00:18:52.898Z,93.40
2018-11-27T00:21:22.444Z,93.21
2018-11-27T00:23:51.926Z,93.50
2018-11-27T00:26:21.336Z,93.24
2018-11-27T00:28:50.733Z,93.41
2018-11-27T00:31:20.265Z,93.13
2018-11-27T00:33:49.669Z,93.62
2018-11-27T00:36:19.142Z,93.24
2018-11-27T00:38:48.539Z,93.63
2018-11-27T00:41:18.829Z,93.54
2018-11-27T00:43:47.383Z,93.37
2018-11-27T00:46:16.863Z,93.76
2018-11-27T00:48:46.295Z,93.73
2018-11-27T00:51:15.770Z,93.89
2018-11-27T00:53:45.211Z,93.94
2018-11-27T00:56:14.607Z,93.96
2018-11-27T00:58:44.007Z,93.88
2018-11-27T01:01:13.533Z,93.72
2018-11-27T01:03:43.010Z,93.97
2018-11-27T01:06:12.422Z,94.00
2018-11-27T01:08:41.827Z,93.86
2018-11-27T01:11:11.304Z,93.97
2018-11-27T01:13:40.843Z,93.84
2018-11-27T01:16:10.310Z,93.88
2018-11-27T01:18:39.790Z,94.21
2018-11-27T01:21:09.175Z,94.00
2018-11-27T01:23:45.300Z,94.31
2018-11-27T01:26:14.789Z,94.39
2018-11-27T01:28:44.219Z,94.66
2018-11-27T01:31:13.696Z,94.55
2018-11-27T01:33:43.109Z,94.58
2018-11-27T01:36:12.497Z,94.60
2018-11-27T01:38:41.903Z,94.63
2018-11-27T01:41:11.287Z,94.67
2018-11-27T01:43:40.743Z,94.62
2018-11-27T01:46:10.129Z,94.84
2018-11-27T01:48:39.643Z,94.92
2018-11-27T01:51:09.064Z,94.93
2018-11-27T01:53:38.518Z,95.09
2018-11-27T01:56:07.944Z,94.44
2018-11-27T01:58:37.358Z,94.92
2018-11-27T02:01:07.067Z,94.74
2018-11-27T02:03:36.471Z,95.01
2018-11-27T02:06:06.491Z,94.98
2018-11-27T02:08:35.912Z,95.03
2018-11-27T02:11:05.498Z,94.96
2018-11-27T02:13:34.891Z,95.09
2018-11-27T02:16:04.281Z,94.93
2018-11-27T02:18:33.698Z,95.27
2018-11-27T02:21:03.203Z,95.03
2018-11-27T02:23:32.740Z,94.71
2018-11-27T02:26:02.137Z,94.89
2018-11-27T02:28:31.546Z,95.00
2018-11-27T02:31:00.987Z,94.99
2018-11-27T02:33:30.405Z,95.18
2018-11-27T02:35:59.862Z,95.19
2018-11-27T02:38:29.432Z,94.96
2018-11-27T02:40:58.851Z,95.24
2018-11-27T02:43:28.341Z,95.02
2018-11-27T02:45:57.756Z,94.95
2018-11-27T02:48:27.148Z,95.17
2018-11-27T02:50:56.654Z,95.19
2018-11-27T02:53:26.293Z,95.15
2018-11-27T02:55:56.175Z,95.18
2018-11-27T02:58:25.705Z,95.39
2018-11-27T03:00:55.161Z,95.20
2018-11-27T03:03:24.597Z,95.01
2018-11-27T03:05:54.102Z,94.77
2018-11-27T03:08:23.604Z,94.84
2018-11-27T03:10:53.145Z,95.12
2018-11-27T03:13:22.501Z,94.91
2018-11-27T03:15:51.866Z,95.18
2018-11-27T03:18:21.285Z,95.06
2018-11-27T03:20:50.685Z,95.32
2018-11-27T03:23:20.047Z,94.94
2018-11-27T03:25:49.493Z,95.22
2018-11-27T03:28:18.897Z,95.02
2018-11-27T03:30:48.259Z,95.55
2018-11-27T03:33:17.642Z,94.99
2018-11-27T03:35:47.107Z,95.10
2018-11-27T03:38:16.469Z,95.31
2018-11-27T03:40:45.913Z,95.38
2018-11-27T03:43:15.266Z,94.98
2018-11-27T03:45:44.724Z,95.29
2018-11-27T03:48:14.247Z,95.47
2018-11-27T03:50:43.652Z,95.31
2018-11-27T03:53:13.037Z,94.87
2018-11-27T03:55:42.433Z,95.09
2018-11-27T03:58:11.845Z,95.70
2018-11-27T04:00:41.185Z,95.09
2018-11-27T04:03:12.486Z,95.34
2018-11-27T04:05:42.809Z,95.39
2018-11-27T04:08:12.216Z,95.03
2018-11-27T04:10:42.354Z,95.84
2018-11-27T04:13:11.764Z,95.54
2018-11-27T04:15:41.146Z,95.54
2018-11-27T04:18:10.506Z,95.77
2018-11-27T04:20:39.950Z,95.36
2018-11-27T04:23:09.336Z,95.55
2018-11-27T04:25:38.787Z,95.52
2018-11-27T04:28:08.767Z,95.65
2018-11-27T04:30:38.143Z,95.63
2018-11-27T04:33:07.577Z,95.81
2018-11-27T04:35:36.973Z,95.55
2018-11-27T04:38:06.997Z,95.63
2018-11-27T04:40:36.374Z,95.48
2018-11-27T04:43:06.493Z,95.38
2018-11-27T04:45:36.047Z,95.74
2018-11-27T04:48:05.532Z,95.31
2018-11-27T04:50:34.893Z,95.97
2018-11-27T04:53:04.257Z,95.21
2018-11-27T04:55:33.698Z,95.37
2018-11-27T04:58:03.045Z,95.35
2018-11-27T05:00:32.437Z,95.36
2018-11-27T05:03:01.809Z,95.64
2018-11-27T05:05:31.254Z,95.70
2018-11-27T05:08:00.648Z,95.55
2018-11-27T05:10:29.995Z,95.41
2018-11-27T05:12:59.473Z,95.66
2018-11-27T05:15:28.858Z,95.60
2018-11-27T05:17:59.447Z,95.86
2018-11-27T05:20:29.016Z,95.26
2018-11-27T05:22:58.405Z,95.04
2018-11-27T05:25:27.854Z,95.11
2018-11-27T05:27:58.359Z,95.39
2018-11-27T05:30:29.039Z,95.21
2018-11-27T05:32:58.468Z,95.48
2018-11-27T05:35:29.668Z,95.38
2018-11-27T05:38:00.953Z,95.26
2018-11-27T05:40:30.382Z,95.30
2018-11-27T05:43:02.918Z,95.34
2018-11-27T05:45:32.570Z,95.45
2018-11-27T05:48:02.105Z,95.23
2018-11-27T05:50:31.563Z,95.42
2018-11-27T05:53:00.964Z,95.35
2018-11-27T05:55:30.323Z,95.39
2018-11-27T05:57:59.790Z,95.15
2018-11-27T06:00:30.513Z,95.29
2018-11-27T06:03:01.463Z,94.77
2018-11-27T06:05:30.975Z,95.13
2018-11-27T06:08:00.356Z,95.05
2018-11-27T06:10:29.900Z,95.05
2018-11-27T06:12:59.419Z,95.19
2018-11-27T06:15:28.873Z,95.11
2018-11-27T06:18:01.347Z,94.84
2018-11-27T06:20:30.941Z,94.58
2018-11-27T06:23:00.367Z,94.77
2018-11-27T06:25:31.184Z,94.64
2018-11-27T06:28:04.417Z,93.95
2018-11-27T06:30:35.399Z,93.84
2018-11-27T06:33:04.880Z,93.71
2018-11-27T06:35:38.545Z,93.34
2018-11-27T06:38:09.673Z,93.28
2018-11-27T06:40:39.545Z,93.15
2018-11-27T06:43:11.453Z,92.76
2018-11-27T06:45:42.696Z,93.15
2018-11-27T06:48:12.132Z,92.52
2018-11-27T06:50:41.514Z,92.34
2018-11-27T06:53:10.927Z,92.08
2018-11-27T06:55:40.329Z,92.16
2018-11-27T06:58:09.812Z,92.15
2018-11-27T07:00:39.217Z,91.87
2018-11-27T07:03:11.685Z,91.87
2018-11-27T07:05:41.325Z,91.54
2018-11-27T07:08:10.854Z,91.36
2018-11-27T07:10:42.642Z,91.28
2018-11-27T07:13:20.194Z,91.32
2018-11-27T07:15:50.637Z,90.96
2018-11-27T07:18:20.038Z,90.76
2018-11-27T07:20:49.437Z,90.66
2018-11-27T07:23:18.844Z,90.65
2018-11-27T07:25:48.321Z,90.36
2018-11-27T07:28:17.689Z,90.13
2018-11-27T07:30:47.118Z,90.45
2018-11-27T07:33:16.501Z,90.00
2018-11-27T07:35:45.920Z,89.77
2018-11-27T07:38:15.287Z,89.85
2018-11-27T07:40:44.658Z,89.81
2018-11-27T07:43:14.674Z,89.31
2018-11-27T07:45:44.044Z,89.26
2018-11-27T07:48:13.448Z,89.14
2018-11-27T07:50:42.918Z,88.87
2018-11-27T07:53:12.404Z,88.67
2018-11-27T07:55:41.769Z,88.58
2018-11-27T07:58:11.189Z,88.46
2018-11-27T08:00:40.695Z,88.24
2018-11-27T08:03:10.081Z,87.62
2018-11-27T08:05:41.230Z,87.27
2018-11-27T08:08:14.592Z,87.46
2018-11-27T08:10:45.553Z,87.17
2018-11-27T08:13:14.938Z,86.82
2018-11-27T08:15:44.446Z,86.17
2018-11-27T08:18:14.004Z,86.03
2018-11-27T08:20:43.375Z,85.35
2018-11-27T08:23:13.271Z,85.26
2018-11-27T08:25:42.666Z,85.09
2018-11-27T08:28:12.106Z,85.06
2018-11-27T08:30:41.471Z,84.64
2018-11-27T08:33:10.881Z,84.05
2018-11-27T08:35:40.269Z,83.92
2018-11-27T08:38:09.630Z,83.54
2018-11-27T08:40:39.015Z,83.63
2018-11-27T08:43:08.697Z,82.82
2018-11-27T08:45:38.090Z,82.77
2018-11-27T08:48:08.003Z,82.75
2018-11-27T08:50:37.366Z,82.22
2018-11-27T08:53:07.855Z,81.93
2018-11-27T08:55:42.958Z,81.63
2018-11-27T08:58:14.853Z,81.33
2018-11-27T09:00:44.259Z,80.98
2018-11-27T09:03:13.653Z,80.46
2018-11-27T09:05:43.061Z,80.54
2018-11-27T09:08:12.433Z,80.11
2018-11-27T09:10:41.877Z,80.33
2018-11-27T09:13:11.464Z,79.93
2018-11-27T09:15:40.908Z,79.82
2018-11-27T09:18:23.782Z,79.85
2018-11-27T09:20:53.199Z,79.28
2018-11-27T09:23:22.590Z,79.21
2018-11-27T09:25:52.257Z,79.07
2018-11-27T09:28:21.723Z,78.44
2018-11-27T09:30:51.141Z,78.38
2018-11-27T09:33:20.620Z,78.15
2018-11-27T09:35:49.995Z,77.81
2018-11-27T09:38:19.458Z,77.91
2018-11-27T09:40:48.813Z,77.09
2018-11-27T09:43:18.192Z,77.17
2018-11-27T09:45:48.867Z,77.34
2018-11-27T09:48:18.246Z,76.88
2018-11-27T09:50:47.785Z,76.77
2018-11-27T09:53:17.374Z,76.83
2018-11-27T09:55:46.933Z,76.61
2018-11-27T09:58:16.475Z,76.21
2018-11-27T10:00:45.925Z,75.83
2018-11-27T10:03:16.469Z,75.90
2018-11-27T10:05:45.926Z,75.50
2018-11-27T10:08:15.444Z,75.58
2018-11-27T10:10:44.850Z,75.48
2018-11-27T10:13:14.394Z,74.92
2018-11-27T10:15:43.858Z,75.51
2018-11-27T10:18:13.245Z,74.94
2018-11-27T10:20:43.691Z,75.08
2018-11-27T10:23:14.705Z,74.62
2018-11-27T10:25:44.105Z,74.68
2018-11-27T10:28:13.466Z,74.38
2018-11-27T10:30:42.943Z,74.55
2018-11-27T10:33:13.156Z,74.66
2018-11-27T10:35:53.557Z,74.04
2018-11-27T10:38:23.022Z,74.23
2018-11-27T10:40:52.439Z,73.87
2018-11-27T10:43:21.875Z,73.68
2018-11-27T10:45:51.259Z,74.17
2018-11-27T10:48:20.645Z,73.82
2018-11-27T10:50:50.025Z,73.90
2018-11-27T10:53:19.581Z,73.74
2018-11-27T10:55:48.967Z,73.53
2018-11-27T10:58:18.594Z,72.95
2018-11-27T11:00:53.253Z,73.04
2018-11-27T11:03:24.475Z,72.78
2018-11-27T11:05:55.950Z,72.41
2018-11-27T11:08:25.370Z,72.31
2018-11-27T11:10:54.782Z,71.95
2018-11-27T11:13:24.173Z,71.56
2018-11-27T11:15:53.572Z,71.90
2018-11-27T11:18:23.022Z,71.65
2018-11-27T11:20:52.401Z,71.44
2018-11-27T11:23:21.775Z,70.77
2018-11-27T11:25:51.690Z,71.00
2018-11-27T11:28:23.859Z,70.70
2018-11-27T11:30:53.225Z,70.75
2018-11-27T11:33:22.622Z,70.58
2018-11-27T11:35:51.941Z,70.69
2018-11-27T11:38:21.380Z,70.44
2018-11-27T11:40:50.777Z,69.85
2018-11-27T11:43:20.134Z,69.86
2018-11-27T11:45:49.499Z,69.88
2018-11-27T11:48:18.885Z,69.80
2018-11-27T11:50:48.462Z,69.94
2018-11-27T11:53:19.525Z,69.55
2018-11-27T11:55:49.776Z,69.64
2018-11-27T11:58:19.173Z,68.95
2018-11-27T12:00:51.644Z,69.01
2018-11-27T12:03:21.013Z,68.87
2018-11-27T12:05:50.451Z,68.93
2018-11-27T12:08:21.601Z,69.02
2018-11-27T12:10:50.999Z,68.96
2018-11-27T12:13:20.402Z,68.84
2018-11-27T12:15:49.802Z,68.98
2018-11-27T12:18:19.211Z,69.00
2018-11-27T12:20:48.599Z,68.63
2018-11-27T12:23:17.979Z,68.42
2018-11-27T12:25:47.361Z,68.59
2018-11-27T12:28:16.711Z,68.21
2018-11-27T12:30:46.109Z,68.31
2018-11-27T12:33:15.522Z,68.60
2018-11-27T12:35:44.906Z,68.67
2018-11-27T12:38:14.280Z,69.07
2018-11-27T12:40:43.748Z,69.05
2018-11-27T12:43:13.137Z,68.99
2018-11-27T12:45:42.539Z,69.74
2018-11-27T12:48:11.931Z,69.86
2018-11-27T12:50:48.006Z,69.72
2018-11-27T12:53:18.732Z,70.35
2018-11-27T12:55:49.996Z,70.30
2018-11-27T12:58:19.389Z,70.79
2018-11-27T13:00:48.817Z,70.27
2018-11-27T13:03:18.181Z,70.67
2018-11-27T13:05:48.246Z,70.74
2018-11-27T13:08:23.354Z,70.72
2018-11-27T13:10:52.861Z,70.72
2018-11-27T13:13:22.273Z,70.78
2018-11-27T13:15:51.655Z,70.96
2018-11-27T13:18:21.207Z,70.49
2018-11-27T13:20:50.664Z,70.55
2018-11-27T13:23:20.184Z,70.26
2018-11-27T13:25:49.554Z,69.88
2018-11-27T13:28:19.062Z,70.37
2018-11-27T13:31:03.451Z,69.85
2018-11-27T13:33:58.011Z,70.00
2018-11-27T13:36:27.431Z,70.12
2018-11-27T13:39:38.342Z,70.19
2018-11-27T13:42:08.834Z,69.99
2018-11-27T13:44:38.235Z,70.03
2018-11-27T13:47:07.667Z,70.17
2018-11-27T13:49:37.028Z,70.42
2018-11-27T13:52:07.256Z,70.08
2018-11-27T13:54:36.652Z,70.43
2018-11-27T13:57:06.250Z,70.29
2018-11-27T13:59:35.657Z,70.01
2018-11-27T14:02:05.307Z,69.88
2018-11-27T14:04:34.728Z,70.00
2018-11-27T14:07:04.098Z,69.95
2018-11-27T14:09:33.547Z,69.79
2018-11-27T14:12:03.009Z,70.18
2018-11-27T14:14:32.433Z,70.39
2018-11-27T14:17:01.814Z,70.09
2018-11-27T14:19:31.235Z,70.49
2018-11-27T14:22:00.634Z,70.56
2018-11-27T14:24:29.975Z,70.56
2018-11-27T14:26:59.477Z,70.87
2018-11-27T14:29:28.926Z,71.20
2018-11-27T14:31:58.437Z,71.20
2018-11-27T14:34:27.817Z,71.23
2018-11-27T14:36:57.192Z,71.68
2018-11-27T14:39:26.649Z,71.48
2018-11-27T14:41:56.014Z,71.59
2018-11-27T14:44:25.485Z,71.64
2018-11-27T14:46:54.947Z,71.82
2018-11-27T14:49:24.337Z,71.93
2018-11-27T14:51:53.798Z,72.10
2018-11-27T14:54:23.256Z,71.98
2018-11-27T14:56:52.677Z,72.70
2018-11-27T14:59:22.270Z,72.61
2018-11-27T15:01:51.830Z,72.84
2018-11-27T15:04:21.223Z,72.67
2018-11-27T15:06:50.722Z,72.86
2018-11-27T15:09:20.127Z,73.04
2018-11-27T15:11:49.499Z,73.29
2018-11-27T15:14:18.903Z,73.05
2018-11-27T15:16:48.274Z,73.41
2018-11-27T15:19:17.742Z,73.71
2018-11-27T15:21:47.211Z,73.72
2018-11-27T15:24:16.612Z,73.54
2018-11-27T15:26:45.969Z,73.45
2018-11-27T15:29:15.358Z,73.61
2018-11-27T15:31:44.770Z,74.07
2018-11-27T15:34:14.173Z,73.81
2018-11-27T15:36:43.645Z,74.20
2018-11-27T15:39:13.082Z,73.58
2018-11-27T15:41:42.539Z,73.41
2018-11-27T15:44:11.929Z,73.45
2018-11-27T15:46:41.331Z,73.59
2018-11-27T15:49:10.901Z,73.59
2018-11-27T15:51:40.334Z,73.33
2018-11-27T15:54:09.707Z,73.38
2018-11-27T15:56:39.290Z,73.70
2018-11-27T15:59:08.637Z,73.60
2018-11-27T16:01:38.079Z,73.73
2018-11-27T16:04:07.565Z,74.12
2018-11-27T16:06:37.136Z,73.93
2018-11-27T16:09:10.757Z,73.94
2018-11-27T16:11:40.505Z,73.99
2018-11-27T16:14:09.929Z,74.24
2018-11-27T16:16:39.312Z,74.29
2018-11-27T16:19:08.745Z,74.11
2018-11-27T16:21:38.093Z,74.22
2018-11-27T16:24:07.633Z,74.04
2018-11-27T16:26:36.990Z,73.98
2018-11-27T16:29:06.594Z,74.14
2018-11-27T16:31:36.028Z,73.98
2018-11-27T16:34:05.766Z,74.14
2018-11-27T16:36:35.194Z,74.48
2018-11-27T16:39:08.158Z,74.16
2018-11-27T16:41:37.781Z,74.19
2018-11-27T16:44:07.352Z,74.43
2018-11-27T16:46:36.760Z,74.52
2018-11-27T16:49:06.473Z,74.44
2018-11-27T16:51:35.893Z,74.67
2018-11-27T16:54:05.775Z,74.86
2018-11-27T16:56:35.168Z,74.82
2018-11-27T16:59:04.605Z,75.01
2018-11-27T17:01:33.973Z,74.92
2018-11-27T17:04:03.334Z,75.24
2018-11-27T17:06:32.809Z,75.21
2018-11-27T17:09:02.176Z,75.60
2018-11-27T17:11:31.638Z,75.76
2018-11-27T17:14:00.988Z,75.58
2018-11-27T17:16:30.546Z,75.72
2018-11-27T17:19:00.005Z,75.79
2018-11-27T17:21:29.479Z,76.03
2018-11-27T17:23:59.070Z,76.08
2018-11-27T17:26:28.511Z,75.93
2018-11-27T17:28:58.122Z,76.18
2018-11-27T17:31:27.633Z,76.06
2018-11-27T17:34:08.707Z,76.48
2018-11-27T17:36:39.317Z,76.50
2018-11-27T17:39:11.898Z,76.90
2018-11-27T17:41:41.326Z,76.74
2018-11-27T17:44:14.829Z,76.85
2018-11-27T17:46:44.246Z,77.09
2018-11-27T17:49:13.629Z,77.23
2018-11-27T17:51:43.035Z,77.49
2018-11-27T17:54:12.417Z,77.69
2018-11-27T17:56:41.808Z,77.38
2018-11-27T17:59:11.244Z,78.10
2018-11-27T18:01:40.658Z,77.80
2018-11-27T18:04:10.153Z,77.84
2018-11-27T18:06:39.513Z,78.06
2018-11-27T18:09:10.016Z,78.13
2018-11-27T18:11:39.372Z,77.85
2018-11-27T18:14:08.934Z,78.32
2018-11-27T18:16:38.300Z,77.80
2018-11-27T18:19:07.961Z,78.34
2018-11-27T18:21:37.397Z,78.01
2018-11-27T18:24:06.901Z,78.11
2018-11-27T18:26:36.286Z,77.87
2018-11-27T18:29:05.680Z,78.07
2018-11-27T18:31:35.059Z,77.80
2018-11-27T18:34:04.430Z,77.86
2018-11-27T18:36:34.557Z,78.24
2018-11-27T18:39:04.446Z,77.97
2018-11-27T18:41:33.813Z,77.77
2018-11-27T18:44:03.203Z,77.69
2018-11-27T18:46:32.561Z,77.65
2018-11-27T18:49:02.211Z,77.91
2018-11-27T18:51:31.583Z,77.55
2018-11-27T18:54:00.970Z,77.69
2018-11-27T18:56:30.334Z,78.00
2018-11-27T18:58:59.763Z,77.53
2018-11-27T19:01:29.462Z,77.49
2018-11-27T19:03:58.888Z,77.59
2018-11-27T19:06:28.309Z,77.88
2018-11-27T19:08:57.645Z,77.64
2018-11-27T19:11:26.982Z,77.60
2018-11-27T19:13:56.314Z,77.67
2018-11-27T19:16:25.674Z,77.59
2018-11-27T19:18:55.149Z,78.07
2018-11-27T19:21:24.525Z,77.78
2018-11-27T19:23:53.897Z,77.77
2018-11-27T19:26:23.305Z,77.57
2018-11-27T19:28:52.802Z,77.96
2018-11-27T19:31:22.210Z,77.83
2018-11-27T19:33:51.711Z,77.88
2018-11-27T19:36:21.177Z,77.99
2018-11-27T19:38:50.525Z,77.85
2018-11-27T19:41:19.919Z,77.74
2018-11-27T19:43:49.325Z,77.62
2018-11-27T19:46:19.191Z,77.75
2018-11-27T19:48:53.441Z,77.98
2018-11-27T19:51:18.109Z,77.71
2018-11-27T19:53:47.714Z,77.61
2018-11-27T19:56:17.168Z,77.33
2018-11-27T19:58:46.580Z,77.68
2018-11-27T20:01:15.979Z,77.58
2018-11-27T20:03:45.350Z,77.84
2018-11-27T20:06:14.728Z,77.46
2018-11-27T20:08:44.069Z,77.73
2018-11-27T20:11:13.639Z,77.62
2018-11-27T20:13:43.002Z,77.42
2018-11-27T20:16:12.382Z,77.76
2018-11-27T20:18:41.818Z,77.43
2018-11-27T20:21:11.184Z,77.40
2018-11-27T20:23:40.570Z,77.49
2018-11-27T20:26:09.941Z,77.71
2018-11-27T20:28:39.576Z,77.77
2018-11-27T20:31:08.986Z,77.21
2018-11-27T20:33:38.378Z,77.93
2018-11-27T20:36:07.830Z,77.66
2018-11-27T20:38:37.823Z,77.57
2018-11-27T20:41:07.537Z,77.44
2018-11-27T20:43:36.886Z,77.27
2018-11-27T20:46:06.931Z,77.55
2018-11-27T20:48:36.293Z,77.25
2018-11-27T20:51:06.604Z,77.35
2018-11-27T20:53:36.025Z,77.21
2018-11-27T20:56:05.594Z,77.37
2018-11-27T20:58:35.078Z,77.61
2018-11-27T21:01:04.455Z,77.68
2018-11-27T21:03:34.179Z,77.41
2018-11-27T21:06:03.612Z,77.44
2018-11-27T21:08:33.019Z,77.34
2018-11-27T21:11:08.092Z,77.47
2018-11-27T21:13:31.795Z,77.33
2018-11-27T21:16:01.256Z,77.47
2018-11-27T21:18:30.729Z,77.48
2018-11-27T21:21:00.524Z,77.12
2018-11-27T21:23:29.877Z,77.36
2018-11-27T21:26:05.168Z,77.48
2018-11-27T21:28:35.161Z,77.17
2018-11-27T21:31:06.446Z,77.71
2018-11-27T21:33:35.806Z,77.54
2018-11-27T21:36:05.696Z,77.73
2018-11-27T21:38:35.073Z,77.73
2018-11-27T21:41:04.405Z,77.62
2018-11-27T21:43:33.770Z,77.36
2018-11-27T21:46:03.110Z,77.49
2018-11-27T21:48:32.478Z,77.37
2018-11-27T21:51:01.844Z,77.55
2018-11-27T21:53:31.237Z,77.34
2018-11-27T21:56:00.587Z,77.13
2018-11-27T21:58:29.985Z,76.95
2018-11-27T22:00:59.618Z,77.12
2018-11-27T22:03:31.885Z,76.75
2018-11-27T22:06:01.284Z,76.78
2018-11-27T22:08:30.783Z,76.76
2018-11-27T22:11:00.206Z,76.88
2018-11-27T22:13:29.577Z,76.95
2018-11-27T22:15:58.982Z,76.78
2018-11-27T22:18:28.369Z,77.09
2018-11-27T22:20:57.914Z,77.02
2018-11-27T22:23:27.315Z,77.16
2018-11-27T22:25:56.657Z,77.08
2018-11-27T22:28:26.009Z,76.99
2018-11-27T22:30:55.375Z,76.92
2018-11-27T22:33:24.835Z,76.73
2018-11-27T22:35:54.259Z,76.72
2018-11-27T22:38:23.591Z,77.01
2018-11-27T22:40:53.003Z,76.98
2018-11-27T22:43:22.369Z,77.14
2018-11-27T22:45:51.817Z,77.14
2018-11-27T22:48:21.485Z,77.08
2018-11-27T22:50:50.928Z,76.84
2018-11-27T22:53:20.351Z,76.89
2018-11-27T22:55:49.746Z,77.20
2018-11-27T22:58:19.100Z,76.79
2018-11-27T23:00:51.381Z,76.54
2018-11-27T23:03:21.010Z,76.32
2018-11-27T23:05:50.473Z,76.19
2018-11-27T23:08:19.821Z,76.33
2018-11-27T23:10:49.967Z,76.13
2018-11-27T23:13:19.346Z,76.25
2018-11-27T23:15:48.706Z,75.92
2018-11-27T23:18:18.067Z,75.73
2018-11-27T23:20:47.449Z,76.05
2018-11-27T23:23:17.013Z,76.05
2018-11-27T23:25:46.390Z,76.16
2018-11-27T23:28:15.754Z,75.81
2018-11-27T23:30:45.166Z,76.14
2018-11-27T23:33:14.585Z,75.76
2018-11-27T23:35:44.005Z,75.71
2018-11-27T23:38:13.365Z,75.25
2018-11-27T23:40:42.753Z,75.52
2018-11-27T23:43:12.191Z,74.76
2018-11-27T23:45:41.579Z,74.91
2018-11-27T23:48:10.995Z,74.82
2018-11-27T23:50:40.380Z,74.79
2018-11-27T23:53:09.841Z,74.75
2018-11-27T23:55:39.289Z,74.51
2018-11-27T23:58:08.795Z,74.50
